createdAt,value
2023-03-24T00:01:52.933Z,8.84
2023-03-24T00:04:55.091Z,8.80
2023-03-24T00:08:01.639Z,8.81
2023-03-24T00:11:06.456Z,8.77
2023-03-24T00:14:08.277Z,8.77
2023-03-24T00:17:11.299Z,8.73
2023-03-24T00:20:14.953Z,8.66
2023-03-24T00:23:16.618Z,8.66
2023-03-24T00:26:18.286Z,8.60
2023-03-24T00:29:19.946Z,8.62
2023-03-24T00:32:22.972Z,8.61
2023-03-24T00:35:24.718Z,8.57
2023-03-24T00:38:26.885Z,8.53
2023-03-24T00:41:28.547Z,8.51
2023-03-24T00:44:30.537Z,8.44
2023-03-24T00:47:34.391Z,8.40
2023-03-24T00:50:36.050Z,8.36
2023-03-24T00:53:38.280Z,8.36
2023-03-24T00:56:41.067Z,8.33
2023-03-24T00:59:43.075Z,8.32
2023-03-24T01:02:47.319Z,8.29
2023-03-24T01:05:49.269Z,8.30
2023-03-24T01:08:52.224Z,8.34
2023-03-24T01:11:53.913Z,8.32
2023-03-24T01:14:55.975Z,8.35
2023-03-24T01:17:59.115Z,8.44
2023-03-24T01:21:01.343Z,8.52
2023-03-24T01:24:03.933Z,8.53
2023-03-24T01:27:05.778Z,8.56
2023-03-24T01:30:08.844Z,8.55
2023-03-24T01:33:11.864Z,8.54
2023-03-24T01:36:13.674Z,8.50
2023-03-24T01:39:15.355Z,8.43
2023-03-24T01:42:18.457Z,8.41
2023-03-24T01:45:48.862Z,8.40
2023-03-24T01:48:55.134Z,8.45
2023-03-24T01:52:00.020Z,8.56
2023-03-24T01:55:05.108Z,8.58
2023-03-24T01:58:07.267Z,8.60
2023-03-24T02:01:09.256Z,8.56
2023-03-24T02:04:13.178Z,8.57
2023-03-24T02:07:20.189Z,8.57
2023-03-24T02:10:23.501Z,8.55
2023-03-24T02:13:25.201Z,8.54
2023-03-24T02:16:48.461Z,8.54
2023-03-24T02:20:29.823Z,8.52
2023-03-24T02:24:00.321Z,8.56
2023-03-24T02:27:15.923Z,8.55
2023-03-24T02:30:32.540Z,8.57
2023-03-24T02:34:18.880Z,8.56
2023-03-24T02:37:29.355Z,8.55
2023-03-24T02:40:40.316Z,8.56
2023-03-24T02:43:49.605Z,8.58
2023-03-24T02:46:58.119Z,8.58
2023-03-24T02:50:07.370Z,8.57
2023-03-24T02:53:15.856Z,8.58
2023-03-24T02:56:23.728Z,8.56
2023-03-24T02:59:34.564Z,8.58
2023-03-24T03:02:39.699Z,8.57
2023-03-24T03:05:47.450Z,8.56
2023-03-24T03:08:51.260Z,8.54
2023-03-24T03:11:56.092Z,8.55
2023-03-24T03:15:01.286Z,8.54
2023-03-24T03:18:09.166Z,8.55
2023-03-24T03:21:13.443Z,8.57
2023-03-24T03:24:19.070Z,8.56
2023-03-24T03:27:25.653Z,8.59
2023-03-24T03:30:31.624Z,8.60
2023-03-24T03:33:38.631Z,8.55
2023-03-24T03:36:48.223Z,8.54
2023-03-24T03:39:54.487Z,8.54
2023-03-24T03:42:57.691Z,8.53
2023-03-24T03:46:00.418Z,8.58
2023-03-24T03:49:02.645Z,8.55
2023-03-24T03:52:05.444Z,8.51
2023-03-24T03:55:08.971Z,8.52
2023-03-24T03:58:12.124Z,8.51
2023-03-24T04:01:17.459Z,8.46
2023-03-24T04:04:53.244Z,8.42
2023-03-24T04:08:15.514Z,8.37
2023-03-24T04:11:36.499Z,8.39
2023-03-24T04:15:08.736Z,8.35
2023-03-24T04:18:31.270Z,8.33
2023-03-24T04:21:48.508Z,8.32
2023-03-24T04:24:54.622Z,8.32
2023-03-24T04:28:03.568Z,8.32
2023-03-24T04:31:15.029Z,8.26
2023-03-24T04:34:21.159Z,8.27
2023-03-24T04:37:25.760Z,8.23
2023-03-24T04:40:27.521Z,8.19
2023-03-24T04:43:33.182Z,8.17
2023-03-24T04:46:36.607Z,8.18
2023-03-24T04:49:38.888Z,8.16
2023-03-24T04:52:42.648Z,8.19
2023-03-24T04:56:07.334Z,8.23
2023-03-24T04:59:09.059Z,8.27
2023-03-24T05:02:12.162Z,8.28
2023-03-24T05:05:14.023Z,8.32
2023-03-24T05:08:16.003Z,8.41
2023-03-24T05:11:18.263Z,8.50
2023-03-24T05:14:19.928Z,8.62
2023-03-24T05:17:23.045Z,8.62
2023-03-24T05:20:25.434Z,8.70
2023-03-24T05:23:27.479Z,8.75
2023-03-24T05:26:31.300Z,8.79
2023-03-24T05:29:34.436Z,8.85
2023-03-24T05:32:38.307Z,8.95
2023-03-24T05:35:40.044Z,9.04
2023-03-24T05:38:42.002Z,9.10
2023-03-24T05:41:43.933Z,9.17
2023-03-24T05:44:45.812Z,9.25
2023-03-24T05:47:48.935Z,9.31
2023-03-24T05:50:51.758Z,9.37
2023-03-24T05:53:53.588Z,9.43
2023-03-24T05:56:55.543Z,9.53
2023-03-24T05:59:57.579Z,9.64
2023-03-24T06:03:00.813Z,9.72
2023-03-24T06:06:02.776Z,9.84
2023-03-24T06:09:04.463Z,9.95
2023-03-24T06:12:06.478Z,10.12
2023-03-24T06:15:10.133Z,10.31
2023-03-24T06:18:13.450Z,10.48
2023-03-24T06:21:15.277Z,10.70
2023-03-24T06:24:17.313Z,10.91
2023-03-24T06:27:18.970Z,11.10
2023-03-24T06:30:20.644Z,11.27
2023-03-24T06:33:23.659Z,11.46
2023-03-24T06:36:25.393Z,11.61
2023-03-24T06:39:27.087Z,11.74
2023-03-24T06:42:28.768Z,11.89
2023-03-24T06:45:31.247Z,12.03
2023-03-24T06:48:34.383Z,12.14
2023-03-24T06:51:36.093Z,12.24
2023-03-24T06:54:37.777Z,12.38
2023-03-24T06:57:39.445Z,12.52
2023-03-24T07:00:41.398Z,12.67
2023-03-24T07:03:45.095Z,12.80
2023-03-24T07:07:04.972Z,12.94
2023-03-24T07:10:09.406Z,13.06
2023-03-24T07:13:11.113Z,13.21
2023-03-24T07:16:12.879Z,13.37
2023-03-24T07:19:15.942Z,13.48
2023-03-24T07:22:17.660Z,13.59
2023-03-24T07:25:19.297Z,13.74
2023-03-24T07:28:21.375Z,13.85
2023-03-24T07:31:23.762Z,13.89
2023-03-24T07:34:27.231Z,13.96
2023-03-24T07:37:28.950Z,14.18
2023-03-24T07:40:30.988Z,14.27
2023-03-24T07:43:32.711Z,14.40
2023-03-24T07:46:35.084Z,14.55
2023-03-24T07:49:38.203Z,14.71
2023-03-24T07:52:41.323Z,14.88
2023-03-24T07:55:43.158Z,14.99
2023-03-24T07:58:45.358Z,15.13
2023-03-24T08:01:48.580Z,15.25
2023-03-24T08:04:52.282Z,15.36
2023-03-24T08:07:54.187Z,15.54
2023-03-24T08:10:55.934Z,15.75
2023-03-24T08:13:57.854Z,15.95
2023-03-24T08:16:59.750Z,15.93
2023-03-24T08:20:05.850Z,15.84
2023-03-24T08:23:08.548Z,15.98
2023-03-24T08:26:10.342Z,16.12
2023-03-24T08:29:12.251Z,16.21
2023-03-24T08:32:14.023Z,16.35
2023-03-24T08:35:19.729Z,16.52
2023-03-24T08:38:21.432Z,16.67
2023-03-24T08:41:23.397Z,16.84
2023-03-24T08:44:25.150Z,16.97
2023-03-24T08:47:29.186Z,17.05
2023-03-24T08:50:34.786Z,17.30
2023-03-24T08:53:36.533Z,17.64
2023-03-24T08:56:38.596Z,17.91
2023-03-24T08:59:40.396Z,18.16
2023-03-24T09:02:43.059Z,18.35
2023-03-24T09:05:46.269Z,18.42
2023-03-24T09:08:47.954Z,18.45
2023-03-24T09:11:49.590Z,18.54
2023-03-24T09:14:51.384Z,18.58
2023-03-24T09:17:53.154Z,18.51
2023-03-24T09:20:56.284Z,18.53
2023-03-24T09:23:57.969Z,18.60
2023-03-24T09:26:59.631Z,18.61
2023-03-24T09:30:01.373Z,18.68
2023-03-24T09:33:03.498Z,18.86
2023-03-24T09:36:07.878Z,18.83
2023-03-24T09:39:09.958Z,18.81
2023-03-24T09:42:18.882Z,18.77
2023-03-24T09:45:22.719Z,18.70
2023-03-24T09:48:33.564Z,18.86
2023-03-24T09:51:40.975Z,18.89
2023-03-24T09:54:49.999Z,18.92
2023-03-24T09:57:53.732Z,18.90
2023-03-24T10:00:57.098Z,18.88
2023-03-24T10:04:00.413Z,18.90
2023-03-24T10:07:10.300Z,18.94
2023-03-24T10:10:22.201Z,18.97
2023-03-24T10:13:34.852Z,19.10
2023-03-24T10:16:43.693Z,19.07
2023-03-24T10:19:55.530Z,19.12
2023-03-24T10:23:13.789Z,19.21
2023-03-24T10:26:30.161Z,19.26
2023-03-24T10:29:34.252Z,19.40
2023-03-24T10:32:37.077Z,19.57
2023-03-24T10:35:42.332Z,19.56
2023-03-24T10:38:45.950Z,19.49
2023-03-24T10:41:49.108Z,19.59
2023-03-24T10:44:52.437Z,19.73
2023-03-24T10:47:57.095Z,19.82
2023-03-24T10:50:59.053Z,19.80
2023-03-24T10:54:12.800Z,19.97
2023-03-24T10:57:18.293Z,20.23
2023-03-24T11:00:23.658Z,20.37
2023-03-24T11:03:29.726Z,20.45
2023-03-24T11:06:32.190Z,20.53
2023-03-24T11:09:42.521Z,20.39
2023-03-24T11:12:59.877Z,20.30
2023-03-24T11:16:10.364Z,20.36
2023-03-24T11:19:22.181Z,20.43
2023-03-24T11:22:25.579Z,20.53
2023-03-24T11:25:33.340Z,20.62
2023-03-24T11:28:39.950Z,20.65
2023-03-24T11:31:42.214Z,20.73
2023-03-24T11:34:47.283Z,20.91
2023-03-24T11:37:49.116Z,21.04
2023-03-24T11:40:55.496Z,20.99
2023-03-24T11:44:16.719Z,21.01
2023-03-24T11:47:23.381Z,21.13
2023-03-24T11:50:29.662Z,21.18
2023-03-24T11:53:37.143Z,21.33
2023-03-24T11:56:42.662Z,21.46
2023-03-24T11:59:51.383Z,21.69
2023-03-24T12:03:11.750Z,21.75
2023-03-24T12:06:30.298Z,21.81
2023-03-24T12:09:38.864Z,21.87
2023-03-24T12:12:52.385Z,21.94
2023-03-24T12:16:00.493Z,22.03
2023-03-24T12:19:23.888Z,22.09
2023-03-24T12:22:40.162Z,22.14
2023-03-24T12:26:00.380Z,22.15
2023-03-24T12:29:26.234Z,22.08
2023-03-24T12:32:45.914Z,21.91
2023-03-24T12:36:00.194Z,21.87
2023-03-24T12:39:10.502Z,21.90
2023-03-24T12:42:13.441Z,21.84
2023-03-24T12:45:37.196Z,21.76
2023-03-24T12:48:52.259Z,21.89
2023-03-24T12:52:07.840Z,21.95
2023-03-24T12:55:14.572Z,22.02
2023-03-24T12:58:23.771Z,22.07
2023-03-24T13:01:32.666Z,22.18
2023-03-24T13:04:40.159Z,22.26
2023-03-24T13:07:42.746Z,22.29
2023-03-24T13:10:46.474Z,22.40
2023-03-24T13:13:49.048Z,22.54
2023-03-24T13:17:00.254Z,22.71
2023-03-24T13:20:05.216Z,22.82
2023-03-24T13:23:21.986Z,22.77
2023-03-24T13:26:37.106Z,22.65
2023-03-24T13:30:02.407Z,22.42
2023-03-24T13:33:14.381Z,22.49
2023-03-24T13:36:31.364Z,22.34
2023-03-24T13:39:35.515Z,22.26
2023-03-24T13:42:43.280Z,22.20
2023-03-24T13:45:47.664Z,22.09
2023-03-24T13:48:55.332Z,22.05
2023-03-24T13:51:57.320Z,22.04
2023-03-24T13:55:01.612Z,22.11
2023-03-24T13:58:08.059Z,22.14
2023-03-24T14:01:30.097Z,22.23
2023-03-24T14:04:45.808Z,22.29
2023-03-24T14:07:49.406Z,22.33
2023-03-24T14:10:51.096Z,22.34
2023-03-24T14:13:53.071Z,22.35
2023-03-24T14:17:12.312Z,22.41
2023-03-24T14:20:27.854Z,22.42
2023-03-24T14:23:35.912Z,22.27
2023-03-24T14:26:37.642Z,22.40
2023-03-24T14:29:47.605Z,22.38
2023-03-24T14:32:52.268Z,22.29
2023-03-24T14:36:01.840Z,22.19
2023-03-24T14:39:09.624Z,22.25
2023-03-24T14:42:48.376Z,22.16
2023-03-24T14:45:55.447Z,22.07
2023-03-24T14:49:01.941Z,21.96
2023-03-24T14:52:12.909Z,21.83
2023-03-24T14:55:17.164Z,21.79
2023-03-24T14:58:24.327Z,21.83
2023-03-24T15:01:31.357Z,21.86
2023-03-24T15:04:33.166Z,21.67
2023-03-24T15:07:36.344Z,21.56
2023-03-24T15:10:42.594Z,21.60
2023-03-24T15:13:48.029Z,21.64
2023-03-24T15:16:55.693Z,21.53
2023-03-24T15:19:57.379Z,21.40
2023-03-24T15:23:07.890Z,21.24
2023-03-24T15:26:13.149Z,21.11
2023-03-24T15:29:15.023Z,21.08
2023-03-24T15:32:19.804Z,21.09
2023-03-24T15:35:23.180Z,21.01
2023-03-24T15:38:30.831Z,20.99
2023-03-24T15:41:33.065Z,20.94
2023-03-24T15:44:38.553Z,20.84
2023-03-24T15:47:40.763Z,20.73
2023-03-24T15:50:56.293Z,20.61
2023-03-24T15:53:59.556Z,20.44
2023-03-24T15:57:02.576Z,20.41
2023-03-24T16:00:08.300Z,20.31
2023-03-24T16:03:13.084Z,20.21
2023-03-24T16:06:15.851Z,20.14
2023-03-24T16:09:21.315Z,20.07
2023-03-24T16:12:23.367Z,19.94
2023-03-24T16:15:25.041Z,19.91
2023-03-24T16:18:30.820Z,19.66
2023-03-24T16:21:32.734Z,19.52
2023-03-24T16:24:36.011Z,19.38
2023-03-24T16:27:37.471Z,19.39
2023-03-24T16:30:41.384Z,19.18
2023-03-24T16:33:43.143Z,19.08
2023-03-24T16:36:44.870Z,18.90
2023-03-24T16:39:47.931Z,18.68
2023-03-24T16:42:49.592Z,18.50
2023-03-24T16:45:53.751Z,18.39
2023-03-24T16:48:55.572Z,18.19
2023-03-24T16:51:57.276Z,18.08
2023-03-24T16:55:00.653Z,17.95
2023-03-24T16:58:02.165Z,17.76
2023-03-24T17:01:15.263Z,17.60
2023-03-24T17:04:19.586Z,17.46
2023-03-24T17:07:21.702Z,17.33
2023-03-24T17:10:26.349Z,17.21
2023-03-24T17:13:28.202Z,17.07
2023-03-24T17:16:30.404Z,16.96
2023-03-24T17:19:32.276Z,16.84
2023-03-24T17:22:34.157Z,16.73
2023-03-24T17:25:37.744Z,16.63
2023-03-24T17:28:40.023Z,16.52
2023-03-24T17:31:42.330Z,16.40
2023-03-24T17:34:45.725Z,16.31
2023-03-24T17:37:47.408Z,16.24
2023-03-24T17:41:00.275Z,16.13
2023-03-24T17:44:02.452Z,16.03
2023-03-24T17:47:05.033Z,15.99
2023-03-24T17:50:08.241Z,15.90
2023-03-24T17:53:10.537Z,15.80
2023-03-24T17:56:14.364Z,15.73
2023-03-24T17:59:17.096Z,15.67
2023-03-24T18:02:19.971Z,15.57
2023-03-24T18:05:22.052Z,15.50
2023-03-24T18:08:24.520Z,15.45
2023-03-24T18:11:28.303Z,15.35
2023-03-24T18:14:30.619Z,15.25
2023-03-24T18:17:33.592Z,15.16
2023-03-24T18:20:36.326Z,15.05
2023-03-24T18:23:42.431Z,14.95
2023-03-24T18:26:48.145Z,14.81
2023-03-24T18:29:52.750Z,14.69
2023-03-24T18:32:56.439Z,14.59
2023-03-24T18:35:59.582Z,14.51
2023-03-24T18:39:05.522Z,14.43
2023-03-24T18:42:13.306Z,14.34
2023-03-24T18:45:15.918Z,14.28
2023-03-24T18:48:18.673Z,14.20
2023-03-24T18:51:21.971Z,14.12
2023-03-24T18:54:24.990Z,14.08
2023-03-24T18:57:28.727Z,14.02
2023-03-24T19:00:32.820Z,13.95
2023-03-24T19:03:36.114Z,13.89
2023-03-24T19:06:38.839Z,13.86
2023-03-24T19:09:42.920Z,13.78
2023-03-24T19:12:47.909Z,13.76
2023-03-24T19:15:53.581Z,13.70
2023-03-24T19:18:56.252Z,13.73
2023-03-24T19:21:59.294Z,13.69
2023-03-24T19:25:02.036Z,13.66
2023-03-24T19:28:07.321Z,13.67
2023-03-24T19:31:13.043Z,13.69
2023-03-24T19:34:16.574Z,13.72
2023-03-24T19:37:19.592Z,13.71
2023-03-24T19:40:22.724Z,13.70
2023-03-24T19:43:27.636Z,13.72
2023-03-24T19:46:30.373Z,13.70
2023-03-24T19:49:33.824Z,13.62
2023-03-24T19:52:37.181Z,13.59
2023-03-24T19:55:41.303Z,13.54
2023-03-24T19:58:46.480Z,13.50
2023-03-24T20:01:49.000Z,13.43
2023-03-24T20:04:52.636Z,13.34
2023-03-24T20:07:56.533Z,13.24
2023-03-24T20:10:59.583Z,13.11
2023-03-24T20:14:03.819Z,12.99
2023-03-24T20:17:07.390Z,12.91
2023-03-24T20:20:13.009Z,12.92
2023-03-24T20:23:16.678Z,12.81
2023-03-24T20:26:22.197Z,12.68
2023-03-24T20:29:26.978Z,12.61
2023-03-24T20:32:29.985Z,12.54
2023-03-24T20:38:36.649Z,12.40
2023-03-24T20:41:40.274Z,12.37
2023-03-24T20:44:45.300Z,12.33
2023-03-24T20:47:48.436Z,12.29
2023-03-24T20:50:51.200Z,12.33
2023-03-24T20:53:54.270Z,12.35
2023-03-24T20:56:56.850Z,12.34
2023-03-24T21:00:00.908Z,12.37
2023-03-24T21:03:03.976Z,12.40
2023-03-24T21:06:08.650Z,12.41
2023-03-24T21:09:11.466Z,12.44
2023-03-24T21:12:14.405Z,12.47
2023-03-24T21:15:18.456Z,12.46
2023-03-24T21:18:23.616Z,12.52
2023-03-24T21:21:27.680Z,12.55
2023-03-24T21:24:30.051Z,12.56
2023-03-24T21:27:32.392Z,12.63
2023-03-24T21:30:37.379Z,12.66
2023-03-24T21:33:39.282Z,12.75
2023-03-24T21:36:41.551Z,12.76
2023-03-24T21:39:43.700Z,12.88
2023-03-24T21:42:46.242Z,12.87
2023-03-24T21:45:49.738Z,13.02
2023-03-24T21:48:52.166Z,13.01
2023-03-24T21:51:54.140Z,13.01
2023-03-24T21:54:55.857Z,13.04
2023-03-24T21:57:57.981Z,13.04
2023-03-24T22:01:01.107Z,13.10
2023-03-24T22:04:02.857Z,13.16
2023-03-24T22:07:04.809Z,13.19
2023-03-24T22:10:09.303Z,13.31
2023-03-24T22:13:11.015Z,13.58
2023-03-24T22:16:14.511Z,13.39
2023-03-24T22:19:16.401Z,13.47
2023-03-24T22:22:18.151Z,13.48
2023-03-24T22:25:20.044Z,13.39
2023-03-24T22:28:21.993Z,13.33
2023-03-24T22:31:25.581Z,13.37
2023-03-24T22:34:27.237Z,13.23
2023-03-24T22:37:28.967Z,13.25
2023-03-24T22:40:30.640Z,13.21
2023-03-24T22:43:33.089Z,13.15
2023-03-24T22:46:36.314Z,13.10
2023-03-24T22:49:38.001Z,13.23
2023-03-24T22:52:39.667Z,13.14
2023-03-24T22:55:41.845Z,13.10
2023-03-24T22:58:43.604Z,13.01
2023-03-24T23:01:53.540Z,12.84
2023-03-24T23:05:00.999Z,12.74
2023-03-24T23:08:02.695Z,12.71
2023-03-24T23:11:07.134Z,12.55
2023-03-24T23:14:08.939Z,12.41
2023-03-24T23:17:12.105Z,12.24
2023-03-24T23:20:13.777Z,12.15
2023-03-24T23:23:15.537Z,12.07
2023-03-24T23:26:25.449Z,11.86
2023-03-24T23:29:28.436Z,11.74
2023-03-24T23:32:33.463Z,11.67
2023-03-24T23:35:35.405Z,11.60
2023-03-24T23:38:37.094Z,11.64
2023-03-24T23:41:38.995Z,11.61
2023-03-24T23:44:40.635Z,11.52
2023-03-24T23:47:45.416Z,11.52
2023-03-24T23:50:55.192Z,11.51
2023-03-24T23:53:57.027Z,11.54
2023-03-24T23:56:58.795Z,11.56
